Capitol Logistics 2450

Operating for GTI



KJFK
John F Kennedy International Airport
New York, New York
KATL
Hartsfield - Jackson Atlanta International Airport
Atlanta, Georgia

Activity Log

Date Flight Route Aircraft Duration
No Flights Yet

Route Details

Aircraft Information
Primary: Boeing 767-300BDSF
Backup: Boeing 757-200SF
Route Data
Distance: 661nm
Duration: 2h 04m
Recm'd Route: RBV Q430 BYRDD J48 FLASK OZZZI1
Origin Wx: KJFK 141951Z 18009KT 10SM FEW050 SCT090 BKN110 BKN140 BKN250 15/09 A2996 RMK AO2 SLP143 T01500089
Dest. Wx: KATL 141952Z 23011G23KT 10SM SCT075 BKN090 BKN140 OVC200 26/08 A3000 RMK AO2 SLP152 ACC ALQDS T02560078
Notes: